Terminal Aerodrome Forecast
Issued by NWS Charleston, WV

Current Version | Previous Version | Graphics & Text | Print | Product List | Glossary On
Versions: 1 2 3 4 5 6 7 8 9 10 11 12 13 14 15 16 17 18 19 20 21 22 23 24
000
FTUS41 KRLX 161900 AAA
TAFCRW
TAF AMD
KCRW 161930Z 1620/1718 14010G21KT P6SM BKN070 BKN160
     FM162000 15013G20KT P6SM OVC045
      TEMPO 1620/1622 6SM -SHRA
     FM170500 17009KT P6SM BKN045
     FM170800 18006KT P6SM BKN026
     FM171000 19005KT P6SM BKN016
     FM171700 VRB03KT P6SM SCT022=

USA.gov is the U.S. government's official web portal to all federal, state and local government web resources and services.